Carver Park, New York
Current Conditions -  °F | °C
As of 3:56 AM on Sunday 26 Oct 2014 (Local Time) from KHWV Reporting Station
Few Clouds Few Clouds  
Wind Chill: 56°   Ceiling: Unl
Heat Index: 56°   Visibility: 10mi
Dew Point: 46°   Wind: 8mph
Humidity: 69%   Direction: 270°W
Pressure: 29.53"   Gusts: NA
Location:  40.835°N, 72.922°W
Report Text: KHWV 260756Z AUTO 27007KT 10SM FEW110 13/08 A2953 RMK AO2 SLP000 T01330078 TSNO
Loading
Personal Weather Stations






























Interactive Weather Map
Tropical Storm Tracking
New forecast layout! Learn more

10-Day Weather Forecast

Advertisements
Track Severe Weather on mobile